Terminal Aerodrome Forecast
Issued by NWS

Home | Current Version | Previous Version | Text Only | Print | Product List | Glossary On
Versions: 1 2 3 4 5 6 7 8 9 10 11 12 13 14 15 16 17 18 19 20 21 22 23 24 25 26 27 28 29 30 31 32
000
FTUS45 KSLC 060908 AAC
TAFOGD
TAF AMD
KOGD 060908Z 0609/0706 15008KT P6SM BKN200
     FM061700 10010G18KT P6SM SCT120 BKN200
     FM062100 05010G20KT P6SM BKN100 BKN150
     FM070300 16008KT P6SM BKN100 BKN150=

USA.gov is the U.S. government's official web portal to all federal, state and local government web resources and services.